Time;durP1;ratioP1;P1;durP2;ratioP2;P2;SDS_P1;SDS_P2;PMS_P1;PMS_P2;Temp;Humidity;BMP_temperature;BMP_pressure;BME280_temperature;BME280_humidity;BME280_pressure;Samples;Min_cycle;Max_cycle;Signal;HPM_P1;HPM_P2
2022/08/24 00:00:58;;;;;;;213.55;204.15;;;13.40;99.90;;;;;;4960424;28;20035;-84
2022/08/24 00:03:24;;;;;;;352.70;335.23;;;13.40;99.90;;;;;;4965672;28;20045;-83
2022/08/24 00:05:50;;;;;;;267.83;254.57;;;13.20;99.90;;;;;;4984340;28;20034;-84
2022/08/24 00:08:17;;;;;;;208.35;198.50;;;13.20;99.90;;;;;;4960569;28;20031;-84
2022/08/24 00:10:44;;;;;;;334.67;316.90;;;13.20;99.90;;;;;;4975169;28;20037;-84
2022/08/24 00:13:09;;;;;;;210.65;200.82;;;13.30;99.90;;;;;;4960022;28;20042;-84
2022/08/24 00:15:35;;;;;;;202.38;192.75;;;13.30;99.90;;;;;;4960755;28;20045;-84
2022/08/24 00:18:01;;;;;;;316.58;299.92;;;13.30;99.90;;;;;;4981527;28;20106;-84
2022/08/24 00:20:28;;;;;;;358.40;339.88;;;13.30;99.90;;;;;;4966023;28;20110;-84
2022/08/24 00:22:53;;;;;;;236.07;224.88;;;13.40;99.90;;;;;;4961688;28;20117;-84
2022/08/24 00:25:19;;;;;;;421.95;399.52;;;13.40;99.90;;;;;;4982400;28;20621;-84
2022/08/24 00:27:46;;;;;;;232.82;221.88;;;13.40;99.90;;;;;;4981519;28;20141;-84
2022/08/24 00:30:15;;;;;;;184.88;176.77;;;13.40;99.90;;;;;;4977027;28;20023;-84
2022/08/24 00:32:42;;;;;;;188.00;179.20;;;13.20;99.90;;;;;;4960484;28;20058;-84
2022/08/24 00:35:08;;;;;;;161.38;153.93;;;13.30;99.90;;;;;;4966012;28;20078;-84
2022/08/24 00:37:35;;;;;;;219.88;209.50;;;13.20;99.90;;;;;;4962810;28;20058;-84
2022/08/24 00:40:04;;;;;;;248.18;236.13;;;13.10;99.90;;;;;;4982207;28;20048;-84
2022/08/24 00:42:30;;;;;;;269.52;256.23;;;13.10;99.90;;;;;;4983156;28;20178;-82
2022/08/24 00:44:57;;;;;;;251.15;239.02;;;13.00;99.90;;;;;;4958194;28;20031;-84
2022/08/24 00:47:24;;;;;;;279.35;264.75;;;13.10;99.90;;;;;;4976327;28;20104;-84
2022/08/24 00:49:58;;;;;;;338.52;321.13;;;13.10;99.90;;;;;;4984309;28;20165;-84
2022/08/24 00:52:34;;;;;;;317.13;300.92;;;12.90;99.90;;;;;;4977877;28;20034;-84
2022/08/24 00:55:07;;;;;;;203.32;193.85;;;12.90;99.90;;;;;;4975748;28;20057;-84
2022/08/24 00:57:36;;;;;;;203.63;194.15;;;12.90;99.90;;;;;;4983948;28;20528;-84
2022/08/24 01:00:11;;;;;;;206.35;197.20;;;12.80;99.90;;;;;;4959207;28;20058;-84
2022/08/24 01:02:43;;;;;;;262.70;250.27;;;12.70;99.90;;;;;;4960752;28;20026;-84
2022/08/24 01:05:11;;;;;;;188.63;180.05;;;12.60;99.90;;;;;;4978410;28;20030;-84
2022/08/24 01:07:38;;;;;;;258.80;245.90;;;12.60;99.90;;;;;;4957801;28;20141;-84
2022/08/24 01:10:13;;;;;;;320.98;304.92;;;12.60;99.90;;;;;;4976098;28;20105;-83
2022/08/24 01:12:43;;;;;;;259.10;246.27;;;12.70;99.90;;;;;;4960086;28;20054;-84
2022/08/24 01:15:10;;;;;;;188.93;180.23;;;12.70;99.90;;;;;;4967809;28;20045;-84
2022/08/24 01:20:25;;;;;;;322.15;306.42;;;12.60;99.90;;;;;;4991523;28;20121;-83
2022/08/24 01:23:15;;;;;;;291.35;276.88;;;12.60;99.90;;;;;;4972388;28;20653;-85
2022/08/24 01:25:43;;;;;;;177.85;170.02;;;12.50;99.90;;;;;;4960601;28;20050;-83
2022/08/24 01:28:16;;;;;;;181.93;173.85;;;12.60;99.90;;;;;;4978450;28;20414;-84
2022/08/24 01:30:43;;;;;;;217.20;207.00;;;12.60;99.90;;;;;;4974190;28;20031;-84
2022/08/24 01:33:20;;;;;;;243.50;231.90;;;12.50;99.90;;;;;;4966772;28;20034;-84
2022/08/24 01:35:46;;;;;;;288.65;274.85;;;12.50;99.90;;;;;;4976706;28;20108;-84
2022/08/24 01:38:12;;;;;;;292.63;278.15;;;12.40;99.90;;;;;;4959880;28;20061;-84
2022/08/24 01:40:43;;;;;;;240.05;228.57;;;12.50;99.90;;;;;;4960580;28;20073;-84
2022/08/24 01:43:11;;;;;;;225.73;214.95;;;12.50;99.90;;;;;;4962793;28;20452;-84
2022/08/24 01:45:37;;;;;;;287.23;273.17;;;12.40;99.90;;;;;;4971628;28;20489;-84
2022/08/24 01:48:03;;;;;;;288.02;273.77;;;12.40;99.90;;;;;;4980897;28;20027;-84
2022/08/24 01:50:30;;;;;;;374.92;355.92;;;12.30;99.90;;;;;;4984377;28;20093;-84
2022/08/24 01:53:00;;;;;;;330.50;314.38;;;12.40;99.90;;;;;;4978644;28;20035;-85
2022/08/24 01:55:26;;;;;;;369.90;352.27;;;12.50;99.90;;;;;;4984871;28;20045;-84
2022/08/24 01:57:51;;;;;;;396.83;376.30;;;12.40;99.90;;;;;;4983933;28;20039;-84
2022/08/24 02:00:17;;;;;;;335.02;318.98;;;12.40;99.90;;;;;;4961620;28;20519;-84
2022/08/24 02:02:43;;;;;;;316.20;299.83;;;12.50;99.90;;;;;;4964055;28;20105;-84
2022/08/24 02:05:11;;;;;;;279.60;266.30;;;12.40;99.90;;;;;;4968654;28;20505;-84
2022/08/24 02:07:37;;;;;;;242.73;231.07;;;12.40;99.90;;;;;;4978514;28;20100;-84
2022/08/24 02:10:06;;;;;;;232.48;221.50;;;12.40;99.90;;;;;;4960125;28;20046;-85
2022/08/24 02:12:32;;;;;;;272.52;259.10;;;12.20;99.90;;;;;;4968971;28;20038;-85
2022/08/24 02:15:01;;;;;;;248.15;236.32;;;12.20;99.90;;;;;;4973336;28;20050;-84
2022/08/24 02:17:27;;;;;;;291.17;277.13;;;12.30;99.90;;;;;;4977738;28;20042;-84
2022/08/24 02:19:52;;;;;;;313.10;298.30;;;12.20;99.90;;;;;;4963672;28;20343;-84
2022/08/24 02:22:18;;;;;;;309.05;293.80;;;12.20;99.90;;;;;;4962506;28;20027;-84
2022/08/24 02:24:44;;;;;;;279.52;265.98;;;12.10;99.90;;;;;;4977527;28;20449;-85
2022/08/24 02:27:10;;;;;;;307.77;292.67;;;12.10;99.90;;;;;;4963771;28;20069;-85
2022/08/24 02:29:35;;;;;;;308.75;294.05;;;12.10;99.90;;;;;;4979993;28;20118;-85
2022/08/24 02:32:01;;;;;;;265.65;253.18;;;12.00;99.90;;;;;;4976199;28;20078;-85
2022/08/24 02:34:27;;;;;;;278.38;265.08;;;12.10;99.90;;;;;;4968152;28;20043;-85
2022/08/24 02:36:54;;;;;;;376.13;357.35;;;12.00;99.90;;;;;;4964604;28;20026;-85
2022/08/24 02:39:20;;;;;;;274.38;261.55;;;12.00;99.90;;;;;;4960595;28;20026;-85
2022/08/24 02:41:45;;;;;;;375.13;356.50;;;12.00;99.90;;;;;;4987393;28;20482;-85
2022/08/24 02:44:11;;;;;;;301.73;287.15;;;12.00;99.90;;;;;;4977465;28;20037;-85
2022/08/24 02:46:37;;;;;;;293.80;279.90;;;12.00;99.90;;;;;;4974690;28;20041;-84
2022/08/24 02:49:03;;;;;;;284.00;270.45;;;12.00;99.90;;;;;;4972747;28;20130;-85
2022/08/24 02:51:32;;;;;;;292.80;279.08;;;11.90;99.90;;;;;;4981479;28;20136;-85
2022/08/24 02:53:59;;;;;;;328.27;312.38;;;11.80;99.90;;;;;;4972658;28;20046;-85
2022/08/24 02:56:28;;;;;;;352.73;335.10;;;11.80;99.90;;;;;;4987482;28;20038;-85
2022/08/24 02:58:55;;;;;;;439.55;415.05;;;11.90;99.90;;;;;;4980498;28;20038;-85
2022/08/24 03:01:21;;;;;;;479.17;452.80;;;11.90;99.90;;;;;;4977495;28;20046;-84
2022/08/24 03:03:46;;;;;;;449.05;424.25;;;11.90;99.90;;;;;;4987901;28;20035;-84
2022/08/24 03:06:12;;;;;;;346.98;329.83;;;11.90;99.90;;;;;;4962903;28;20046;-84
2022/08/24 03:08:38;;;;;;;383.00;362.42;;;11.80;99.90;;;;;;4978966;28;20124;-85
2022/08/24 03:11:06;;;;;;;311.48;296.08;;;11.80;99.90;;;;;;4984959;28;20027;-85
2022/08/24 03:13:31;;;;;;;319.40;304.38;;;11.70;99.90;;;;;;4981224;28;20035;-85
2022/08/24 03:15:58;;;;;;;410.83;389.13;;;11.70;99.90;;;;;;4942039;28;20035;-85
2022/08/24 03:18:25;;;;;;;467.55;441.67;;;11.70;99.90;;;;;;4986064;28;20392;-84
2022/08/24 03:20:53;;;;;;;366.77;348.25;;;11.70;99.90;;;;;;4962870;28;20035;-85
2022/08/24 03:23:19;;;;;;;489.63;461.85;;;11.70;99.90;;;;;;4975954;28;20402;-84
2022/08/24 03:25:44;;;;;;;339.50;323.05;;;11.70;99.90;;;;;;4964609;28;20037;-85
2022/08/24 03:28:11;;;;;;;415.02;393.38;;;11.80;99.90;;;;;;4949461;28;20041;-85
2022/08/24 03:30:38;;;;;;;377.77;358.85;;;11.70;99.90;;;;;;4975708;28;20114;-85
2022/08/24 03:33:05;;;;;;;419.42;397.13;;;11.60;99.90;;;;;;4966879;28;20142;-85
2022/08/24 03:35:32;;;;;;;345.83;328.85;;;11.70;99.90;;;;;;4958862;28;20133;-85
2022/08/24 03:37:58;;;;;;;312.98;297.88;;;11.70;99.90;;;;;;4960200;28;20414;-85
2022/08/24 03:40:25;;;;;;;268.70;256.42;;;11.70;99.90;;;;;;4965608;28;20030;-85
2022/08/24 03:42:51;;;;;;;303.33;289.00;;;11.70;99.90;;;;;;4998950;28;20038;-84
2022/08/24 03:45:17;;;;;;;250.75;238.95;;;11.60;99.90;;;;;;4981132;28;20054;-85
2022/08/24 03:47:44;;;;;;;304.52;289.98;;;11.50;99.90;;;;;;4980677;28;20065;-85
2022/08/24 03:50:10;;;;;;;288.63;275.00;;;11.50;99.90;;;;;;4981555;28;20038;-85
2022/08/24 03:52:36;;;;;;;255.80;243.95;;;11.40;99.90;;;;;;4977209;28;20031;-84
2022/08/24 03:55:04;;;;;;;262.75;251.00;;;11.40;99.90;;;;;;4975640;28;20049;-85
2022/08/24 03:57:30;;;;;;;215.93;205.85;;;11.40;99.90;;;;;;4974907;28;20054;-85
2022/08/24 03:59:56;;;;;;;282.80;269.83;;;11.40;99.90;;;;;;4991387;28;20061;-85
2022/08/24 04:02:23;;;;;;;343.27;326.55;;;11.20;99.90;;;;;;4972640;28;20061;-86
2022/08/24 04:04:49;;;;;;;294.42;280.60;;;11.30;99.90;;;;;;4987972;28;20052;-85
2022/08/24 04:07:15;;;;;;;262.25;250.10;;;11.30;99.90;;;;;;4990327;28;20498;-85
2022/08/24 04:09:41;;;;;;;332.88;316.88;;;11.20;99.90;;;;;;4990718;28;20049;-85
2022/08/24 04:12:06;;;;;;;326.00;310.27;;;11.20;99.90;;;;;;4972456;28;20088;-85
2022/08/24 04:14:33;;;;;;;235.00;224.77;;;11.20;99.90;;;;;;4971271;28;20049;-85
2022/08/24 04:16:59;;;;;;;270.30;258.10;;;11.20;99.90;;;;;;4990538;28;20172;-85
2022/08/24 04:19:26;;;;;;;286.42;272.58;;;11.30;99.90;;;;;;4990266;28;20046;-85
2022/08/24 04:21:51;;;;;;;211.55;201.30;;;11.30;99.90;;;;;;4990358;28;20022;-85
2022/08/24 04:24:18;;;;;;;224.20;214.10;;;11.30;99.90;;;;;;4968960;28;20573;-87
2022/08/24 04:26:44;;;;;;;271.27;258.35;;;11.20;99.90;;;;;;4990398;28;20453;-85
2022/08/24 04:29:11;;;;;;;254.45;242.60;;;11.10;99.90;;;;;;4970259;28;20062;-85
2022/08/24 04:31:38;;;;;;;288.67;275.20;;;11.10;99.90;;;;;;4989725;28;20039;-84
2022/08/24 04:34:06;;;;;;;253.90;242.63;;;11.10;99.90;;;;;;4973057;28;20034;-85
2022/08/24 04:36:32;;;;;;;213.73;203.82;;;11.10;99.90;;;;;;4985376;28;20030;-84
2022/08/24 04:38:57;;;;;;;232.27;221.75;;;11.10;99.90;;;;;;4972795;28;20053;-84
2022/08/24 04:41:23;;;;;;;237.45;226.63;;;11.10;99.90;;;;;;4989969;28;20026;-84
2022/08/24 04:43:49;;;;;;;261.20;249.57;;;11.10;99.90;;;;;;4970984;28;20046;-84
2022/08/24 04:46:18;;;;;;;275.58;262.40;;;11.10;99.90;;;;;;4984482;28;20117;-84
2022/08/24 04:48:46;;;;;;;283.45;270.10;;;11.10;99.90;;;;;;4986775;28;20045;-84
2022/08/24 04:51:14;;;;;;;315.45;299.88;;;11.20;99.90;;;;;;4972097;28;20076;-84
2022/08/24 04:53:40;;;;;;;269.58;256.92;;;11.20;99.90;;;;;;4989946;28;20039;-84
2022/08/24 04:56:12;;;;;;;251.20;239.55;;;11.20;99.90;;;;;;4989516;28;20164;-83
2022/08/24 04:58:38;;;;;;;262.83;250.80;;;11.30;99.90;;;;;;4977553;28;20136;-85
2022/08/24 05:01:08;;;;;;;318.45;302.98;;;11.40;99.90;;;;;;4970012;28;20035;-83
2022/08/24 05:03:35;;;;;;;365.90;347.80;;;11.40;99.90;;;;;;4985695;28;20581;-85
2022/08/24 05:06:00;;;;;;;445.23;421.23;;;11.50;99.90;;;;;;4984949;28;20043;-84
2022/08/24 05:08:26;;;;;;;440.35;416.48;;;11.60;99.90;;;;;;4968842;28;20039;-84
2022/08/24 05:10:52;;;;;;;538.38;506.20;;;11.70;99.90;;;;;;4969458;28;20072;-84
2022/08/24 05:13:18;;;;;;;772.38;707.95;;;11.70;99.90;;;;;;4969313;28;20045;-83
2022/08/24 05:15:46;;;;;;;808.78;736.05;;;11.80;99.90;;;;;;4970158;28;20514;-84
2022/08/24 05:18:14;;;;;;;847.60;773.10;;;11.90;99.90;;;;;;4970456;28;20055;-84
2022/08/24 05:20:42;;;;;;;845.45;771.78;;;12.00;99.90;;;;;;4953365;28;20070;-84
2022/08/24 05:23:07;;;;;;;856.60;778.15;;;12.10;99.90;;;;;;4983961;28;20018;-84
2022/08/24 05:25:33;;;;;;;940.80;840.05;;;12.20;99.90;;;;;;4974244;28;20062;-84
2022/08/24 05:27:59;;;;;;;1105.35;935.13;;;12.30;99.90;;;;;;4972980;28;20035;-84
2022/08/24 05:30:25;;;;;;;1038.75;909.60;;;12.30;99.90;;;;;;4972195;28;20034;-83
2022/08/24 05:32:51;;;;;;;866.55;784.80;;;12.30;99.90;;;;;;4974590;28;20037;-83
2022/08/24 05:35:17;;;;;;;996.15;859.45;;;12.50;99.90;;;;;;4973593;28;20121;-84
2022/08/24 05:37:42;;;;;;;1088.78;912.50;;;12.50;99.90;;;;;;4974358;28;20111;-83
2022/08/24 05:40:11;;;;;;;1093.07;895.58;;;12.60;99.90;;;;;;4972227;28;20042;-84
2022/08/24 05:42:37;;;;;;;955.20;861.33;;;12.60;99.90;;;;;;4985280;28;20027;-84
2022/08/24 05:45:04;;;;;;;997.45;884.88;;;12.70;99.90;;;;;;4973911;28;20114;-84
2022/08/24 05:47:30;;;;;;;911.15;823.40;;;12.80;99.90;;;;;;4973976;28;20106;-84
2022/08/24 05:49:55;;;;;;;785.92;720.95;;;12.80;99.90;;;;;;4972382;28;20130;-83
2022/08/24 05:52:21;;;;;;;884.42;801.95;;;13.00;99.90;;;;;;4973862;28;20035;-83
2022/08/24 05:54:52;;;;;;;842.10;760.20;;;13.00;99.90;;;;;;4972952;28;20383;-83
2022/08/24 05:57:18;;;;;;;838.53;768.28;;;13.10;99.90;;;;;;4988392;28;20053;-83
2022/08/24 05:59:45;;;;;;;609.60;564.53;;;13.20;99.90;;;;;;4979428;28;20022;-83
2022/08/24 06:02:11;;;;;;;956.42;851.13;;;13.30;99.90;;;;;;4966966;28;20054;-83
2022/08/24 06:04:37;;;;;;;1013.10;894.80;;;13.40;99.90;;;;;;4986059;28;20034;-83
2022/08/24 06:07:04;;;;;;;865.83;785.75;;;13.40;99.90;;;;;;4976677;28;20186;-83
2022/08/24 06:09:30;;;;;;;854.28;777.75;;;13.50;99.90;;;;;;4980844;28;20042;-83
2022/08/24 06:11:56;;;;;;;618.17;575.28;;;13.60;99.90;;;;;;4986135;28;20524;-83
2022/08/24 06:14:21;;;;;;;717.90;642.65;;;13.70;99.90;;;;;;4976119;28;20086;-83
2022/08/24 06:16:47;;;;;;;711.67;657.65;;;13.70;99.90;;;;;;4984847;28;20061;-83
2022/08/24 06:19:15;;;;;;;830.10;756.35;;;13.70;99.90;;;;;;4967301;28;20672;-83
2022/08/24 06:21:42;;;;;;;694.25;646.58;;;13.80;99.90;;;;;;4962359;28;20030;-83
2022/08/24 06:24:08;;;;;;;618.38;578.58;;;13.90;99.90;;;;;;4979900;28;20691;-83
2022/08/24 06:29:20;;;;;;;393.58;373.15;;;14.10;99.90;;;;;;4975139;28;20077;-83
2022/08/24 06:31:47;;;;;;;481.85;457.00;;;14.10;99.90;;;;;;4963056;28;20038;-83
2022/08/24 06:34:15;;;;;;;621.90;584.08;;;14.20;99.90;;;;;;4961485;28;20042;-83
2022/08/24 06:36:41;;;;;;;274.63;260.38;;;14.20;99.90;;;;;;4979674;28;20069;-83
2022/08/24 06:39:07;;;;;;;355.60;337.23;;;14.30;99.90;;;;;;4978943;28;20880;-83
2022/08/24 06:41:34;;;;;;;445.33;422.15;;;14.40;99.90;;;;;;4986530;28;20054;-83
2022/08/24 06:44:00;;;;;;;422.98;402.08;;;14.50;99.90;;;;;;4978318;28;20027;-83
2022/08/24 06:46:26;;;;;;;275.98;262.52;;;14.60;99.90;;;;;;4960284;28;20104;-83
2022/08/24 06:48:52;;;;;;;328.52;313.35;;;14.60;99.90;;;;;;4984835;28;20093;-82
2022/08/24 06:51:21;;;;;;;340.10;309.58;;;14.70;99.90;;;;;;4979914;28;20126;-83
2022/08/24 06:53:47;;;;;;;301.20;286.27;;;14.80;99.90;;;;;;4976290;28;20037;-83
2022/08/24 06:56:13;;;;;;;289.98;276.23;;;14.90;99.90;;;;;;4984470;28;20030;-83
2022/08/24 06:58:39;;;;;;;228.65;217.88;;;15.00;99.90;;;;;;4986790;28;20057;-82
2022/08/24 07:01:17;;;;;;;294.02;278.70;;;15.10;99.90;;;;;;4982567;28;20076;-82
2022/08/24 07:03:44;;;;;;;213.65;203.55;;;15.20;99.90;;;;;;4992034;28;20026;-82
2022/08/24 07:06:11;;;;;;;101.47;96.90;;;15.30;99.90;;;;;;4973743;28;20039;-83
2022/08/24 07:08:45;;;;;;;223.60;212.93;;;15.40;99.90;;;;;;4974750;28;20058;-85
2022/08/24 07:11:16;;;;;;;151.52;144.68;;;15.50;99.90;;;;;;4986266;28;20034;-85
2022/08/24 07:13:42;;;;;;;261.42;248.55;;;15.60;99.90;;;;;;4992182;28;20096;-82
2022/08/24 07:16:08;;;;;;;211.48;201.98;;;15.60;99.90;;;;;;4990196;28;20038;-82
2022/08/24 07:18:34;;;;;;;307.35;292.10;;;15.90;99.90;;;;;;4991716;28;20033;-82
2022/08/24 07:21:03;;;;;;;140.00;134.25;;;16.00;99.90;;;;;;4990728;28;20041;-85
2022/08/24 07:23:29;;;;;;;299.90;285.77;;;16.20;99.90;;;;;;4974145;28;20034;-85
2022/08/24 07:25:55;;;;;;;152.50;146.40;;;16.40;99.90;;;;;;4990146;28;20121;-83
2022/08/24 07:28:22;;;;;;;168.45;161.75;;;16.60;99.90;;;;;;4991765;28;20121;-84
2022/08/24 07:30:47;;;;;;;161.98;155.70;;;16.80;99.90;;;;;;4954665;28;20050;-85
2022/08/24 07:33:13;;;;;;;135.88;130.20;;;16.90;99.90;;;;;;4972949;28;20521;-82
2022/08/24 07:35:39;;;;;;;128.07;122.95;;;17.00;99.90;;;;;;4957402;28;20038;-82
2022/08/24 07:38:06;;;;;;;105.28;100.82;;;17.20;99.90;;;;;;4973631;28;20026;-83
2022/08/24 07:40:32;;;;;;;87.72;84.07;;;17.20;99.90;;;;;;4988121;28;20134;-84
2022/08/24 07:42:58;;;;;;;163.57;156.93;;;17.30;99.90;;;;;;4989821;28;20038;-82
2022/08/24 07:45:25;;;;;;;98.72;94.53;;;17.30;99.90;;;;;;4989773;28;20042;-82
2022/08/24 07:47:51;;;;;;;153.13;147.18;;;17.40;99.90;;;;;;4991031;28;20029;-82
2022/08/24 07:50:18;;;;;;;129.07;123.80;;;17.50;99.90;;;;;;4972751;28;20425;-82
2022/08/24 07:52:45;;;;;;;130.57;125.05;;;17.60;99.90;;;;;;4973162;28;20031;-82
2022/08/24 07:55:12;;;;;;;158.20;151.55;;;17.80;99.90;;;;;;4973574;28;20487;-82
2022/08/24 07:57:39;;;;;;;120.95;115.93;;;17.90;99.90;;;;;;4985831;28;20043;-82
2022/08/24 08:00:10;;;;;;;35.50;32.90;;;18.10;99.90;;;;;;4977123;28;20138;-81
2022/08/24 08:02:37;;;;;;;110.55;105.88;;;18.00;99.90;;;;;;4966133;28;20058;-82
2022/08/24 08:05:04;;;;;;;93.28;88.53;;;18.10;99.90;;;;;;4979695;28;20121;-82
2022/08/24 08:07:30;;;;;;;53.85;50.72;;;18.10;99.90;;;;;;4977188;28;20035;-82
2022/08/24 08:09:56;;;;;;;142.30;134.85;;;18.30;99.90;;;;;;4967062;28;20454;-83
2022/08/24 08:12:22;;;;;;;99.25;94.50;;;18.40;99.90;;;;;;4978255;28;20397;-82
2022/08/24 08:14:48;;;;;;;95.15;90.88;;;18.50;99.90;;;;;;4958426;28;20031;-83
2022/08/24 08:17:15;;;;;;;61.38;58.53;;;18.70;99.90;;;;;;4976778;28;20053;-83
2022/08/24 08:19:42;;;;;;;34.05;32.10;;;18.70;99.90;;;;;;4986386;28;20030;-82
2022/08/24 08:24:53;;;;;;;36.67;34.38;;;18.80;99.90;;;;;;4980670;28;20038;-83
2022/08/24 08:27:20;;;;;;;67.78;64.57;;;19.00;99.90;;;;;;4979810;28;20030;-83
2022/08/24 08:29:47;;;;;;;45.35;43.08;;;19.20;99.90;;;;;;4957634;28;20485;-83
2022/08/24 08:32:15;;;;;;;60.65;57.63;;;19.40;99.90;;;;;;4981953;28;20050;-84
2022/08/24 08:34:42;;;;;;;51.25;48.78;;;19.40;99.90;;;;;;4980100;28;20039;-83
2022/08/24 08:37:08;;;;;;;112.00;107.40;;;19.70;99.90;;;;;;4975954;28;20031;-83
2022/08/24 08:39:34;;;;;;;46.42;43.58;;;20.00;99.90;;;;;;4965257;28;20042;-83
2022/08/24 08:42:21;;;;;;;56.78;54.00;;;20.00;97.80;;;;;;4963001;28;20491;-83
2022/08/24 08:45:13;;;;;;;52.90;50.45;;;20.10;97.80;;;;;;4977226;28;20035;-83
2022/08/24 08:47:50;;;;;;;55.47;52.92;;;20.30;94.90;;;;;;4938022;28;20106;-83
2022/08/24 08:50:55;;;;;;;28.75;26.92;;;20.40;95.30;;;;;;4960923;28;20058;-83
2022/08/24 08:53:59;;;;;;;41.00;38.67;;;20.60;92.30;;;;;;4965199;28;20038;-83
2022/08/24 08:56:35;;;;;;;28.17;26.48;;;20.70;92.90;;;;;;4973936;28;20027;-83
2022/08/24 08:59:24;;;;;;;36.00;34.20;;;20.80;93.10;;;;;;4991013;28;20030;-83
2022/08/24 09:02:25;;;;;;;43.40;41.20;;;20.80;92.80;;;;;;4952269;28;20058;-83
2022/08/24 09:05:01;;;;;;;35.63;33.63;;;20.70;97.40;;;;;;4958283;28;20050;-83
2022/08/24 09:07:43;;;;;;;23.73;22.17;;;21.20;93.00;;;;;;4987000;28;20041;-83
2022/08/24 09:10:30;;;;;;;33.15;30.95;;;21.20;90.30;;;;;;4972433;28;20030;-83
2022/08/24 09:13:07;;;;;;;29.98;28.27;;;21.40;91.70;;;;;;4972340;28;20022;-83
2022/08/24 09:15:45;;;;;;;40.22;38.25;;;21.50;89.10;;;;;;4987765;28;20035;-83
2022/08/24 09:18:32;;;;;;;36.35;34.33;;;21.90;87.60;;;;;;4971895;28;20042;-83
2022/08/24 09:21:34;;;;;;;54.08;51.38;;;21.80;83.50;;;;;;4975092;28;20109;-83
2022/08/24 09:24:19;;;;;;;32.08;30.17;;;22.20;88.10;;;;;;4987017;28;20178;-83
2022/08/24 09:27:19;;;;;;;33.35;31.77;;;22.40;84.00;;;;;;4990587;28;20406;-83
2022/08/24 09:30:03;;;;;;;44.17;41.95;;;22.50;80.70;;;;;;4985180;28;20138;-83
2022/08/24 09:33:02;;;;;;;35.33;33.15;;;22.50;82.30;;;;;;4986408;28;20109;-83
2022/08/24 09:35:30;;;;;;;37.55;35.63;;;22.40;80.50;;;;;;4989759;28;20502;-83
2022/08/24 09:38:15;;;;;;;30.50;28.98;;;22.70;79.20;;;;;;4972716;28;20026;-83
2022/08/24 09:41:26;;;;;;;25.10;23.77;;;23.00;83.50;;;;;;4990092;28;20516;-83
2022/08/24 09:44:22;;;;;;;26.00;24.40;;;23.30;73.20;;;;;;4988644;28;20022;-83
2022/08/24 09:47:05;;;;;;;30.58;29.02;;;23.40;71.60;;;;;;4972325;28;20025;-83
2022/08/24 09:49:52;;;;;;;21.23;20.05;;;23.80;66.00;;;;;;4988364;28;20022;-84
2022/08/24 09:52:17;;;;;;;23.10;21.70;;;23.80;73.00;;;;;;4988963;28;20026;-83
2022/08/24 09:54:49;;;;;;;23.10;21.60;;;24.00;64.80;;;;;;4989032;28;20035;-84
2022/08/24 09:57:21;;;;;;;17.90;16.70;;;24.00;65.80;;;;;;4973600;28;20074;-83
2022/08/24 10:00:12;;;;;;;14.07;12.77;;;23.80;61.70;;;;;;4969030;28;20478;-84
2022/08/24 10:02:59;;;;;;;18.25;17.17;;;23.50;66.10;;;;;;4968266;28;20050;-85
2022/08/24 10:06:02;;;;;;;19.98;18.48;;;24.00;64.80;;;;;;4967296;28;20033;-84
2022/08/24 10:08:57;;;;;;;18.90;17.92;;;24.20;65.40;;;;;;4967506;28;20031;-83
2022/08/24 10:11:26;;;;;;;11.65;10.75;;;24.60;58.40;;;;;;4973521;28;20060;-83
2022/08/24 10:13:57;;;;;;;16.83;15.88;;;24.80;54.40;;;;;;4973841;28;20093;-84
2022/08/24 10:16:53;;;;;;;19.45;18.35;;;25.00;54.30;;;;;;4972183;28;20038;-84
2022/08/24 10:19:48;;;;;;;14.70;13.70;;;25.00;57.30;;;;;;4973562;28;20438;-84
2022/08/24 10:22:32;;;;;;;18.85;17.45;;;25.00;51.90;;;;;;4986271;28;20628;-84
2022/08/24 10:25:16;;;;;;;14.25;13.52;;;25.00;59.50;;;;;;4973234;28;20031;-84
2022/08/24 10:27:59;;;;;;;13.52;12.82;;;25.30;53.30;;;;;;4983118;28;20039;-82
2022/08/24 10:30:42;;;;;;;13.77;12.77;;;25.30;48.10;;;;;;4991202;28;20059;-83
2022/08/24 10:33:20;;;;;;;16.05;15.20;;;25.60;45.90;;;;;;4968294;28;20030;-84
2022/08/24 10:36:07;;;;;;;14.60;13.82;;;25.60;47.10;;;;;;4973684;28;20443;-84
2022/08/24 10:41:48;;;;;;;17.35;16.35;;;25.50;46.50;;;;;;4970720;28;20094;-84
2022/08/24 10:44:32;;;;;;;18.77;17.90;;;25.50;47.80;;;;;;4971824;28;20105;-84
2022/08/24 10:47:04;;;;;;;17.58;16.55;;;25.50;46.70;;;;;;4966948;28;20087;-84
2022/08/24 10:49:35;;;;;;;29.02;26.98;;;25.60;46.10;;;;;;4985178;28;20259;-84
2022/08/24 10:52:33;;;;;;;16.15;15.35;;;25.60;43.30;;;;;;4972619;28;20038;-84
2022/08/24 10:55:26;;;;;;;26.77;25.38;;;26.10;43.90;;;;;;4968558;28;20027;-84
2022/08/24 10:58:33;;;;;;;27.90;26.70;;;26.40;41.30;;;;;;4969109;28;20045;-84
2022/08/24 11:01:21;;;;;;;27.33;26.08;;;26.60;40.40;;;;;;4969423;28;20023;-84
2022/08/24 11:03:55;;;;;;;15.90;14.93;;;26.90;42.50;;;;;;4987139;28;20031;-83
2022/08/24 11:06:23;;;;;;;13.73;13.02;;;27.30;39.10;;;;;;4972946;28;20507;-82
2022/08/24 11:09:06;;;;;;;14.93;14.07;;;27.30;41.60;;;;;;4987239;28;20050;-83
2022/08/24 11:11:34;;;;;;;22.05;21.10;;;27.90;42.90;;;;;;4985066;28;20035;-82
2022/08/24 11:14:07;;;;;;;19.27;18.25;;;27.50;41.40;;;;;;4970561;28;20023;-82
2022/08/24 11:16:34;;;;;;;23.60;22.45;;;28.20;41.20;;;;;;4971046;28;20443;-82
2022/08/24 11:19:09;;;;;;;15.13;14.35;;;28.20;39.70;;;;;;4972269;28;20811;-83
2022/08/24 11:21:40;;;;;;;17.15;15.77;;;28.40;38.00;;;;;;4967508;28;20078;-84
2022/08/24 11:24:23;;;;;;;19.70;18.67;;;27.80;38.70;;;;;;4970315;28;20042;-83
2022/08/24 11:27:17;;;;;;;17.08;16.20;;;27.50;38.50;;;;;;4979063;28;20042;-82
2022/08/24 11:29:48;;;;;;;20.45;19.45;;;28.70;38.90;;;;;;4968202;28;20097;-82
2022/08/24 11:32:36;;;;;;;36.67;35.08;;;28.30;39.70;;;;;;4967308;28;20055;-83
2022/08/24 11:35:14;;;;;;;25.05;23.73;;;27.80;41.10;;;;;;4983577;28;20090;-82
2022/08/24 11:37:41;;;;;;;20.95;19.60;;;28.40;39.60;;;;;;4967946;28;20102;-83
2022/08/24 11:40:08;;;;;;;10.52;9.73;;;28.60;38.20;;;;;;4971319;28;20098;-83
2022/08/24 11:43:25;;;;;;;19.35;18.27;;;29.30;36.10;;;;;;4987107;28;20085;-83
2022/08/24 11:46:32;;;;;;;18.50;17.50;;;29.50;36.70;;;;;;4936225;28;20422;-82
2022/08/24 11:49:13;;;;;;;14.88;14.15;;;29.90;35.30;;;;;;4969284;28;20387;-83
2022/08/24 11:51:44;;;;;;;19.63;18.50;;;29.70;34.30;;;;;;4970134;28;20559;-83
2022/08/24 11:54:18;;;;;;;22.13;21.13;;;30.00;34.90;;;;;;4970361;28;20023;-84
2022/08/24 11:57:13;;;;;;;18.35;17.55;;;30.30;33.30;;;;;;4966553;28;20497;-83
2022/08/24 12:00:02;;;;;;;20.58;19.67;;;29.90;33.90;;;;;;4979890;28;20490;-83
2022/08/24 12:02:31;;;;;;;;;;;29.50;33.70;;;;;;4989871;28;20046;-83
2022/08/24 12:05:24;;;;;;;14.35;13.50;;;30.30;33.60;;;;;;4990610;28;19909;-83
2022/08/24 12:08:18;;;;;;;18.02;17.08;;;29.70;34.00;;;;;;4973409;28;20052;-83
2022/08/24 12:10:44;;;;;;;14.65;13.60;;;29.60;31.70;;;;;;4980331;28;20050;-83
2022/08/24 12:13:22;;;;;;;19.77;18.88;;;29.00;34.30;;;;;;4988677;28;20030;-83
2022/08/24 12:15:59;;;;;;;17.42;16.58;;;28.70;35.20;;;;;;4990938;28;20077;-82
2022/08/24 12:18:52;;;;;;;20.33;19.42;;;29.10;36.40;;;;;;4970320;28;20041;-83
2022/08/24 12:21:22;;;;;;;31.10;29.67;;;29.40;35.30;;;;;;4990617;28;20061;-83
2022/08/24 12:23:53;;;;;;;19.90;18.92;;;29.80;34.60;;;;;;4973120;28;20027;-82
2022/08/24 12:26:28;;;;;;;27.55;26.35;;;30.00;30.80;;;;;;4971926;28;20034;-83
2022/08/24 12:29:01;;;;;;;25.50;24.45;;;30.00;31.90;;;;;;4971324;28;20038;-82
2022/08/24 12:31:42;;;;;;;26.63;25.58;;;30.00;32.50;;;;;;4984469;28;20034;-82
2022/08/24 12:34:29;;;;;;;37.03;35.45;;;30.00;34.20;;;;;;4988933;28;20025;-83
2022/08/24 12:37:20;;;;;;;33.00;31.70;;;31.00;29.80;;;;;;4981192;28;20030;-83
2022/08/24 12:39:49;;;;;;;45.05;43.05;;;30.50;31.00;;;;;;4972637;28;20034;-83
2022/08/24 12:42:34;;;;;;;;;;;31.30;29.50;;;;;;5007085;28;20056;-83
2022/08/24 12:45:05;;;;;;;38.58;36.88;;;30.80;30.40;;;;;;4997182;28;19909;-83
2022/08/24 12:47:53;;;;;;;23.00;22.00;;;31.40;32.10;;;;;;4974835;28;20365;-83
2022/08/24 12:50:29;;;;;;;26.40;25.13;;;29.70;31.60;;;;;;4988055;28;20039;-83